Time;durP1;ratioP1;P1;durP2;ratioP2;P2;SDS_P1;SDS_P2;PMS_P1;PMS_P2;Temp;Humidity;BMP_temperature;BMP_pressure;BME280_temperature;BME280_humidity;BME280_pressure;Samples;Min_cycle;Max_cycle;Signal;HPM_P1;HPM_P2
2022/06/23 04:41:38;;;;;;;5.05;1.85;;;;;;;22.71;51.89;99514.50;4437305;26;33938;-81
2022/06/23 04:44:16;;;;;;;3.72;1.85;;;;;;;22.74;52.09;99511.94;4438332;32;34136;-80
2022/06/23 04:46:51;;;;;;;6.18;2.00;;;;;;;22.76;52.31;99515.25;4423300;32;34079;-80
2022/06/23 04:49:30;;;;;;;4.87;2.10;;;;;;;22.79;51.83;99520.28;4420204;32;34611;-80
2022/06/23 04:52:06;;;;;;;4.00;1.95;;;;;;;22.82;51.32;99525.31;4438934;32;34836;-81
2022/06/23 04:54:36;;;;;;;5.78;2.42;;;;;;;22.85;51.02;99530.31;4438728;32;32944;-81
2022/06/23 04:57:24;;;;;;;7.65;2.22;;;;;;;22.93;50.56;99528.84;4425551;32;33595;-81
2022/06/23 04:59:54;;;;;;;5.07;2.40;;;;;;;22.96;50.51;99533.84;4425909;32;34334;-78
2022/06/23 05:02:39;;;;;;;5.50;1.70;;;;;;;22.97;51.05;99535.53;4438890;32;33298;-80
2022/06/23 05:05:34;;;;;;;4.07;1.70;;;;;;;22.89;50.35;99531.41;4439204;32;33990;-80
2022/06/23 05:08:27;;;;;;;4.45;1.83;;;;;;;22.89;48.35;99541.75;4423667;32;31419;-81
2022/06/23 05:11:04;;;;;;;3.15;1.60;;;;;;;22.81;47.08;99534.81;4439628;32;34191;-80
2022/06/23 05:13:56;;;;;;;4.68;1.60;;;;;;;22.76;45.29;99542.41;4453286;32;34585;-79
2022/06/23 05:16:37;;;;;;;5.20;1.50;;;;;;;22.81;45.33;99545.19;4431847;32;34202;-81
2022/06/23 05:19:10;;;;;;;4.50;1.70;;;;;;;22.81;45.19;99550.78;4426052;32;33290;-81
2022/06/23 05:21:42;;;;;;;5.12;2.03;;;;;;;22.90;44.62;99558.25;4415071;32;34532;-81
2022/06/23 05:24:24;;;;;;;4.22;1.83;;;;;;;22.99;44.27;99558.47;4447752;32;34756;-81
2022/06/23 05:27:04;;;;;;;4.53;1.92;;;;;;;22.91;43.18;99561.88;4428391;32;31731;-81
2022/06/23 05:29:41;;;;;;;4.00;1.50;;;;;;;23.05;43.21;99564.84;4428310;32;34163;-79
2022/06/23 05:32:17;;;;;;;7.20;1.92;;;;;;;23.08;43.04;99567.91;4428296;32;33034;-80
2022/06/23 05:34:54;;;;;;;5.28;1.80;;;;;;;23.19;41.73;99558.28;4428182;32;32453;-79
2022/06/23 05:37:32;;;;;;;2.92;1.42;;;;;;;23.38;42.00;99569.56;4428488;32;32291;-82
2022/06/23 05:40:19;;;;;;;4.53;1.80;;;;;;;23.11;40.22;99572.91;4441506;32;34562;-81
2022/06/23 05:42:50;;;;;;;3.20;1.62;;;;;;;23.11;40.09;99569.28;4456499;32;33071;-80
2022/06/23 05:45:22;;;;;;;4.43;1.60;;;;;;;23.50;39.18;99575.56;4431146;32;33348;-81
2022/06/23 05:47:50;;;;;;;3.53;1.37;;;;;;;23.59;39.33;99572.97;4444234;32;34039;-81
2022/06/23 05:50:50;;;;;;;7.90;1.70;;;;;;;23.51;38.38;99570.78;4431321;32;32601;-81
2022/06/23 05:53:26;;;;;;;4.03;1.65;;;;;;;23.44;38.30;99582.34;4455898;32;34597;-81
2022/06/23 05:55:56;;;;;;;3.37;1.70;;;;;;;23.65;37.89;99583.84;4456607;32;34912;-80
2022/06/23 05:58:35;;;;;;;4.18;1.67;;;;;;;23.63;39.20;99593.66;4472671;32;33431;-79
2022/06/23 06:01:11;;;;;;;6.05;1.62;;;;;;;23.78;37.00;99589.84;4456813;32;34470;-80
2022/06/23 06:03:44;;;;;;;;;;;;;;;23.97;35.48;99585.97;4457192;32;35251;-82
2022/06/23 06:06:12;;;;;;;3.80;1.67;;;;;;;23.95;35.14;99584.59;4443894;32;32602;-80
2022/06/23 06:11:45;;;;;;;3.12;1.40;;;;;;;24.27;35.29;99583.91;4458938;32;34422;-80
2022/06/23 06:14:16;;;;;;;10.30;2.17;;;;;;;24.36;35.30;99586.88;4456799;32;34165;-81
2022/06/23 06:16:43;;;;;;;3.58;1.55;;;;;;;24.18;34.34;99589.31;4441072;32;33696;-80
2022/06/23 06:19:19;;;;;;;3.95;1.62;;;;;;;24.35;35.55;99597.25;4428533;32;33472;-81
2022/06/23 06:21:48;;;;;;;3.17;1.62;;;;;;;24.39;34.39;99595.53;4428552;32;33817;-79
2022/06/23 06:24:41;;;;;;;2.72;1.30;;;;;;;24.57;33.77;99602.28;4438872;32;34028;-81
2022/06/23 06:27:11;;;;;;;3.75;1.58;;;;;;;24.48;34.35;99602.13;4426232;32;32549;-81
2022/06/23 06:29:41;;;;;;;4.57;1.40;;;;;;;24.73;33.62;99598.06;4438076;32;32064;-80
2022/06/23 06:32:18;;;;;;;5.22;1.60;;;;;;;24.49;34.34;99601.00;4426591;32;33130;-80
2022/06/23 06:34:49;;;;;;;3.58;1.37;;;;;;;24.83;32.99;99602.69;4425945;32;33012;-81
2022/06/23 06:37:17;;;;;;;3.78;1.60;;;;;;;24.87;32.98;99606.56;4426419;32;32288;-78
2022/06/23 06:39:47;;;;;;;3.12;1.58;;;;;;;25.04;33.50;99603.22;4437868;32;32975;-80
2022/06/23 06:42:28;;;;;;;3.97;1.62;;;;;;;25.06;32.00;99604.59;4440656;32;34129;-80
2022/06/23 06:45:01;;;;;;;2.70;1.35;;;;;;;24.93;33.93;99605.34;4441656;32;35241;-80
2022/06/23 06:47:32;;;;;;;3.83;1.50;;;;;;;25.31;32.51;99613.72;4453735;32;34410;-81
2022/06/23 06:50:18;;;;;;;3.55;1.50;;;;;;;25.37;32.30;99610.50;4440883;32;34025;-79
2022/06/23 06:52:47;;;;;;;6.53;1.45;;;;;;;25.42;31.64;99609.56;4453539;32;34828;-78
2022/06/23 06:55:19;;;;;;;4.72;1.37;;;;;;;25.40;31.20;99612.69;4441106;32;34262;-79
2022/06/23 06:57:52;;;;;;;4.05;1.60;;;;;;;25.50;30.89;99606.03;4454096;32;34034;-79
2022/06/23 07:00:33;;;;;;;4.70;1.80;;;;;;;25.35;30.81;99611.97;4441039;32;31776;-79
2022/06/23 07:03:03;;;;;;;3.15;1.40;;;;;;;25.53;32.09;99622.28;4441026;32;33801;-78
2022/06/23 07:05:43;;;;;;;5.47;1.50;;;;;;;25.47;31.46;99624.34;4441135;32;34513;-78
2022/06/23 07:08:29;;;;;;;5.62;1.50;;;;;;;25.70;31.30;99628.19;4453715;32;34270;-78
2022/06/23 07:11:23;;;;;;;4.03;1.50;;;;;;;25.61;32.10;99621.56;4453827;32;33378;-79
2022/06/23 07:14:17;;;;;;;3.65;1.42;;;;;;;25.57;31.32;99626.16;4440994;32;32180;-78
2022/06/23 07:17:07;;;;;;;4.78;1.70;;;;;;;25.51;32.18;99630.19;4454474;32;34536;-78
2022/06/23 07:19:44;;;;;;;4.37;1.50;;;;;;;25.76;30.90;99626.09;4453460;32;33174;-78
2022/06/23 07:22:21;;;;;;;7.35;1.55;;;;;;;25.96;31.01;99630.50;4453541;32;33989;-78
2022/06/23 07:25:01;;;;;;;3.78;1.40;;;;;;;25.98;30.22;99631.03;4454847;32;34006;-78
2022/06/23 07:27:40;;;;;;;4.78;1.62;;;;;;;25.79;30.78;99636.72;4454832;32;34227;-79
2022/06/23 07:30:15;;;;;;;5.15;1.50;;;;;;;25.85;31.18;99635.50;4453513;32;33271;-78
2022/06/23 07:32:43;;;;;;;2.97;1.33;;;;;;;26.01;31.37;99641.63;4440962;32;34311;-78
2022/06/23 07:35:32;;;;;;;4.22;1.50;;;;;;;26.13;30.96;99637.13;4453677;32;33802;-78
2022/06/23 07:38:15;;;;;;;3.22;1.60;;;;;;;26.16;30.13;99641.31;4454915;32;35126;-79
2022/06/23 07:40:48;;;;;;;3.72;1.50;;;;;;;26.24;30.64;99649.84;4452910;32;33833;-79
2022/06/23 07:43:25;;;;;;;4.30;1.50;;;;;;;26.05;29.97;99649.13;4453639;32;33096;-78
2022/06/23 07:45:57;;;;;;;3.00;1.48;;;;;;;26.25;29.83;99651.50;4453509;32;33795;-78
2022/06/23 07:48:31;;;;;;;3.95;1.75;;;;;;;26.37;30.44;99655.81;4440662;32;32808;-78
2022/06/23 07:51:01;;;;;;;3.97;1.40;;;;;;;26.52;30.19;99650.69;4428117;32;33331;-80
2022/06/23 07:53:33;;;;;;;5.93;1.58;;;;;;;26.59;30.67;99653.06;4453564;32;33468;-87
2022/06/23 07:56:04;;;;;;;4.30;1.50;;;;;;;26.63;31.10;99651.28;4441828;32;33696;-81
2022/06/23 07:58:36;;;;;;;5.80;1.30;;;;;;;26.64;30.47;99652.13;4440979;32;34490;-81
2022/06/23 08:01:18;;;;;;;2.70;1.33;;;;;;;26.71;30.12;99653.31;4454573;32;34216;-82
2022/06/23 08:04:09;;;;;;;4.45;1.58;;;;;;;26.84;30.16;99657.25;4440995;32;32790;-83
2022/06/23 08:06:42;;;;;;;3.40;1.60;;;;;;;26.86;29.65;99654.97;4440722;32;32316;-82
2022/06/23 08:09:29;;;;;;;3.45;1.48;;;;;;;26.98;28.42;99646.81;4453638;32;35332;-82
2022/06/23 08:18:29;;;;;;;3.72;1.42;;;;;;;27.30;28.04;99650.56;4428354;32;34721;-83
2022/06/23 08:21:04;;;;;;;5.72;1.80;;;;;;;27.41;28.45;99649.94;4440334;32;34690;-84
2022/06/23 08:23:40;;;;;;;5.07;1.60;;;;;;;27.52;28.11;99650.50;4427971;32;33513;-86
2022/06/23 08:26:11;;;;;;;6.15;1.60;;;;;;;27.18;28.88;99651.97;4440230;32;34026;-84
2022/06/23 08:28:45;;;;;;;4.47;1.77;;;;;;;27.47;28.84;99653.47;4440652;32;32295;-84
2022/06/23 08:31:16;;;;;;;5.47;1.73;;;;;;;27.59;27.97;99648.09;4453034;32;34144;-85
2022/06/23 08:33:44;;;;;;;4.07;1.80;;;;;;;27.41;28.15;99647.12;4440011;32;32448;-84
2022/06/23 08:36:19;;;;;;;4.95;1.85;;;;;;;27.45;28.51;99647.31;4428243;32;31952;-85
2022/06/23 08:39:01;;;;;;;12.50;2.20;;;;;;;27.72;28.63;99650.00;4440103;32;32482;-84
2022/06/23 08:41:50;;;;;;;6.70;1.60;;;;;;;27.92;28.48;99645.78;4440685;32;34376;-87
2022/06/23 08:44:31;;;;;;;3.78;1.60;;;;;;;28.08;26.82;99649.81;4452881;32;32398;-85
2022/06/23 08:47:17;;;;;;;4.57;1.80;;;;;;;28.11;27.46;99639.88;4440187;32;32270;-85
2022/06/23 08:49:50;;;;;;;;;;;;;;;28.02;26.12;99645.47;4453158;32;32245;-83
2022/06/23 08:52:28;;;;;;;6.93;1.67;;;;;;;28.34;25.59;99649.94;4441104;32;34234;-84
2022/06/23 08:55:05;;;;;;;4.65;1.52;;;;;;;28.37;26.21;99646.47;4442500;32;32483;-85
2022/06/23 08:57:39;;;;;;;5.90;1.80;;;;;;;28.54;26.90;99645.69;4454754;32;33393;-86
2022/06/23 09:00:20;;;;;;;2.80;1.42;;;;;;;28.68;26.04;99642.69;4443551;32;32301;-84
2022/06/23 09:02:59;;;;;;;6.47;1.65;;;;;;;28.69;26.40;99639.53;4453528;32;35040;-84
2022/06/23 09:06:00;;;;;;;8.80;1.73;;;;;;;28.60;25.91;99641.50;4449653;32;34023;-86
2022/06/23 09:09:27;;;;;;;4.53;1.33;;;;;;;28.84;25.51;99639.06;4438882;32;31479;-83
2022/06/23 09:12:32;;;;;;;3.67;1.48;;;;;;;28.86;24.63;99638.75;4373868;32;33611;-83
2022/06/23 09:15:28;;;;;;;4.55;1.52;;;;;;;28.97;24.88;99640.09;4457469;32;35214;-84
2022/06/23 09:18:22;;;;;;;5.40;1.58;;;;;;;29.27;25.07;99626.91;4450142;32;34664;-83
2022/06/23 09:20:59;;;;;;;5.65;1.75;;;;;;;29.17;24.04;99633.75;4441348;32;31705;-83
2022/06/23 09:24:02;;;;;;;5.47;1.67;;;;;;;29.43;24.43;99632.91;4448894;32;32251;-83
2022/06/23 09:26:43;;;;;;;3.05;1.45;;;;;;;29.38;24.59;99636.69;4442919;32;33650;-84
2022/06/23 09:29:32;;;;;;;4.43;1.75;;;;;;;29.41;23.33;99638.88;4440643;32;32374;-84
2022/06/23 09:32:20;;;;;;;9.73;2.30;;;;;;;29.55;23.81;99632.22;4452797;32;33288;-87
2022/06/23 09:35:07;;;;;;;5.37;1.45;;;;;;;29.66;23.59;99625.84;4455140;32;33739;-83
2022/06/23 09:37:41;;;;;;;3.20;1.33;;;;;;;29.88;23.87;99633.28;4433103;32;33707;-87
2022/06/23 09:40:18;;;;;;;3.72;1.25;;;;;;;30.08;23.08;99632.53;4429226;32;33377;-86
2022/06/23 09:43:04;;;;;;;5.10;1.52;;;;;;;30.31;23.55;99633.09;4450613;32;33428;-86
2022/06/23 09:45:38;;;;;;;2.95;1.30;;;;;;;30.44;22.14;99637.69;4441719;32;32356;-86
2022/06/23 09:48:43;;;;;;;4.25;1.70;;;;;;;30.53;21.91;99628.31;4428860;32;34255;-85
2022/06/23 09:51:19;;;;;;;3.47;1.15;;;;;;;30.78;22.61;99638.62;4441288;32;32455;-85
2022/06/23 09:54:08;;;;;;;2.25;1.35;;;;;;;30.79;21.64;99626.13;4454023;32;33774;-85
2022/06/23 09:57:06;;;;;;;5.22;1.40;;;;;;;30.61;20.28;99619.75;4440369;32;33928;-86
2022/06/23 09:59:52;;;;;;;2.45;1.27;;;;;;;30.93;21.20;99615.34;4450972;32;34685;-86
2022/06/23 10:02:34;;;;;;;3.42;1.17;;;;;;;30.98;21.16;99617.12;4449216;32;34009;-85
2022/06/23 10:05:11;;;;;;;5.70;1.30;;;;;;;31.33;21.34;99617.66;4453718;32;34235;-84
2022/06/23 10:08:06;;;;;;;3.25;1.40;;;;;;;31.58;21.22;99618.56;4452807;32;33667;-85
2022/06/23 10:10:45;;;;;;;3.80;1.27;;;;;;;31.60;20.64;99614.19;4428534;32;33834;-85
2022/06/23 10:13:39;;;;;;;6.03;1.40;;;;;;;31.77;19.69;99616.88;4441466;32;33358;-85
2022/06/23 10:16:15;;;;;;;2.80;1.40;;;;;;;32.02;20.20;99614.88;4428649;32;34027;-84
2022/06/23 10:19:13;;;;;;;9.60;4.68;;;;;;;32.09;20.82;99615.09;4451215;32;33649;-87
2022/06/23 10:22:13;;;;;;;14.18;9.82;;;;;;;32.22;20.05;99617.94;4440422;32;33096;-86
2022/06/23 10:25:00;;;;;;;3.58;1.10;;;;;;;32.40;19.60;99613.72;4440802;32;33987;-86
2022/06/23 10:28:00;;;;;;;4.37;1.17;;;;;;;32.19;19.38;99625.16;4440812;32;32772;-86
2022/06/23 10:30:50;;;;;;;21.92;1.67;;;;;;;32.24;19.51;99619.28;4426886;32;32404;-84
2022/06/23 10:33:36;;;;;;;8.65;1.50;;;;;;;32.35;19.17;99619.63;4441061;32;34293;-86
2022/06/23 10:36:12;;;;;;;23.87;4.53;;;;;;;32.34;18.29;99610.28;4430271;32;33988;-85
2022/06/23 10:39:17;;;;;;;16.12;5.85;;;;;;;32.51;19.80;99606.34;4466966;32;32946;-85
2022/06/23 10:42:18;;;;;;;2.75;1.15;;;;;;;32.99;19.99;99611.13;4443032;32;33147;-84
2022/06/23 10:46:04;;;;;;;7.68;1.50;;;;;;;32.99;18.23;99611.13;4457498;32;34709;-84
2022/06/23 10:49:13;;;;;;;15.82;1.90;;;;;;;33.22;17.97;99608.50;4383112;32;34690;-85
2022/06/23 10:52:22;;;;;;;9.07;1.30;;;;;;;33.19;18.39;99605.56;4406628;32;33202;-83
2022/06/23 10:55:05;;;;;;;5.87;1.40;;;;;;;33.23;18.70;99595.94;4405562;32;33301;-85
2022/06/23 10:58:15;;;;;;;5.32;1.45;;;;;;;33.56;18.01;99600.56;4381119;32;33132;-87
2022/06/23 11:01:09;;;;;;;3.30;1.30;;;;;;;33.65;18.41;99601.22;4442611;32;32566;-84
2022/06/23 11:04:01;;;;;;;3.78;1.08;;;;;;;33.49;17.14;99598.34;4442954;32;33704;-86
2022/06/23 11:06:28;;;;;;;7.32;1.70;;;;;;;33.22;17.42;99594.28;4455661;32;34678;-86
2022/06/23 11:08:59;;;;;;;10.38;7.85;;;;;;;33.10;17.55;99597.22;4459147;32;34411;-86
2022/06/23 11:12:00;;;;;;;2.33;1.35;;;;;;;32.76;17.30;99598.63;4447855;32;33877;-83
2022/06/23 11:15:01;;;;;;;1.65;1.00;;;;;;;32.77;17.78;99597.44;4429174;32;32619;-84
2022/06/23 11:17:49;;;;;;;1.92;1.10;;;;;;;32.75;17.76;99594.09;4443498;32;34223;-87
2022/06/23 11:20:57;;;;;;;10.98;6.55;;;;;;;32.47;17.64;99598.91;4443786;32;33942;-80
2022/06/23 11:23:57;;;;;;;8.82;4.65;;;;;;;32.68;17.90;99602.41;4459263;32;33887;-82
2022/06/23 11:26:58;;;;;;;167.02;119.35;;;;;;;32.85;17.50;99604.16;4440660;32;33748;-83
2022/06/23 11:29:53;;;;;;;5.03;1.48;;;;;;;33.24;18.70;99582.56;4426894;32;32740;-82
2022/06/23 11:32:34;;;;;;;3.03;1.35;;;;;;;33.26;18.09;99591.56;4427526;32;32836;-83
2022/06/23 11:35:28;;;;;;;4.03;1.85;;;;;;;33.20;17.41;99590.97;4427501;32;32620;-82
2022/06/23 11:38:33;;;;;;;4.37;1.48;;;;;;;33.38;17.37;99589.50;4427631;32;33499;-88
2022/06/23 11:41:13;;;;;;;4.22;1.08;;;;;;;33.21;16.85;99581.25;4439685;32;33724;-84
2022/06/23 11:44:00;;;;;;;3.78;1.10;;;;;;;33.43;16.81;99584.75;4427757;32;35346;-84
2022/06/23 11:46:47;;;;;;;2.12;1.00;;;;;;;33.44;16.56;99590.06;4427485;32;32332;-88
2022/06/23 11:50:03;;;;;;;8.05;1.42;;;;;;;32.99;16.25;99581.84;4450391;32;33721;-85
2022/06/23 11:53:29;;;;;;;2.40;1.48;;;;;;;33.33;16.35;99586.09;4467764;32;33739;-86
2022/06/23 11:56:26;;;;;;;5.87;2.15;;;;;;;33.51;17.24;99589.44;4441865;32;32861;-86
2022/06/23 11:59:02;;;;;;;5.05;1.80;;;;;;;33.76;15.84;99579.56;4455647;32;34608;-86
2022/06/23 12:01:41;;;;;;;3.15;1.45;;;;;;;33.83;16.83;99588.28;4443571;32;33357;-86
2022/06/23 12:04:15;;;;;;;4.25;1.50;;;;;;;34.04;16.55;99585.16;4443728;32;33167;-86
2022/06/23 12:07:05;;;;;;;3.08;1.10;;;;;;;34.11;16.45;99590.22;4456001;32;34380;-84
2022/06/23 12:09:52;;;;;;;3.70;1.42;;;;;;;34.20;16.48;99585.97;4455629;32;34666;-85
2022/06/23 12:12:33;;;;;;;2.65;1.25;;;;;;;34.32;16.41;99590.78;4429977;32;31916;-85
2022/06/23 12:15:23;;;;;;;2.80;1.60;;;;;;;34.42;16.50;99589.37;4442337;32;32307;-87
2022/06/23 12:18:04;;;;;;;2.55;1.20;;;;;;;34.45;16.34;99588.63;4441642;32;34876;-86
2022/06/23 12:20:54;;;;;;;5.28;1.48;;;;;;;34.11;15.90;99590.22;4443606;32;32473;-86
2022/06/23 12:23:24;;;;;;;3.62;1.35;;;;;;;33.86;16.52;99586.72;4454975;32;33781;-85
2022/06/23 12:26:03;;;;;;;7.10;1.77;;;;;;;33.76;16.81;99590.13;4455123;32;33870;-85
2022/06/23 12:28:39;;;;;;;4.62;1.20;;;;;;;33.74;16.90;99581.94;4454357;32;33125;-84
2022/06/23 12:31:29;;;;;;;3.08;1.30;;;;;;;33.74;16.75;99586.81;4444198;32;32460;-85
2022/06/23 12:34:09;;;;;;;3.08;1.10;;;;;;;33.80;16.72;99591.06;4454843;32;33364;-85
2022/06/23 12:36:44;;;;;;;4.45;1.45;;;;;;;33.55;16.57;99585.50;4442065;32;32087;-82
2022/06/23 12:39:44;;;;;;;2.85;1.25;;;;;;;33.72;16.06;99582.31;4454691;32;34019;-85
2022/06/23 12:42:32;;;;;;;;;;;;;;;33.85;16.54;99579.38;4442346;32;34153;-84
2022/06/23 12:45:02;;;;;;;5.20;1.35;;;;;;;34.02;16.63;99581.84;4442699;32;32803;-84
2022/06/23 12:47:45;;;;;;;5.28;1.65;;;;;;;34.23;16.49;99585.25;4455265;32;33696;-85
2022/06/23 12:50:43;;;;;;;2.53;1.20;;;;;;;34.33;17.24;99581.03;4429348;32;33009;-82
2022/06/23 12:53:39;;;;;;;2.70;1.20;;;;;;;34.40;17.02;99572.66;4442305;32;33525;-85
2022/06/23 12:56:13;;;;;;;3.33;1.60;;;;;;;34.30;14.94;99573.19;4454959;32;32715;-84
2022/06/23 12:58:46;;;;;;;2.72;1.12;;;;;;;34.21;16.56;99570.53;4437716;32;32490;-85
2022/06/23 13:01:15;;;;;;;5.15;1.40;;;;;;;34.12;17.02;99577.62;4427405;32;34972;-85
2022/06/23 13:04:00;;;;;;;3.55;1.25;;;;;;;33.80;16.33;99571.12;4439273;32;34328;-84
2022/06/23 13:06:45;;;;;;;5.87;1.30;;;;;;;33.42;17.06;99577.41;4439835;32;33402;-84
2022/06/23 13:09:44;;;;;;;5.30;1.90;;;;;;;33.41;17.50;99572.91;4426520;32;34484;-85
2022/06/23 13:12:36;;;;;;;1.60;1.00;;;;;;;33.47;18.14;99574.28;4423855;32;33825;-85
2022/06/23 13:15:07;;;;;;;3.87;1.27;;;;;;;33.20;17.67;99570.25;4436292;32;33908;-85
2022/06/23 13:17:50;;;;;;;3.90;1.65;;;;;;;33.15;18.27;99577.03;4448845;32;33969;-88
2022/06/23 13:20:33;;;;;;;5.00;1.33;;;;;;;33.14;18.58;99571.72;4454101;32;33510;-88
2022/06/23 13:23:15;;;;;;;4.10;1.17;;;;;;;32.55;17.54;99580.88;4438424;32;33790;-85
2022/06/23 13:25:56;;;;;;;7.22;3.97;;;;;;;32.99;17.66;99571.31;4426820;32;33718;-77
2022/06/23 13:28:34;;;;;;;7.28;4.28;;;;;;;33.12;18.99;99569.25;4424827;32;32311;-75
2022/06/23 13:31:23;;;;;;;11.43;1.90;;;;;;;33.15;18.96;99565.66;4420849;32;33186;-76
2022/06/23 13:34:00;;;;;;;4.10;1.27;;;;;;;33.30;19.03;99578.28;4440192;32;33885;-86
2022/06/23 13:37:05;;;;;;;6.20;2.72;;;;;;;33.16;18.65;99575.00;4437938;32;32400;-82
2022/06/23 13:39:35;;;;;;;3.78;1.40;;;;;;;33.21;18.76;99566.22;4388765;32;33542;-81
2022/06/23 13:42:13;;;;;;;4.75;1.30;;;;;;;33.14;18.33;99560.34;4439384;32;32366;-79
2022/06/23 13:44:47;;;;;;;7.20;2.22;;;;;;;32.90;18.20;99562.09;4443045;32;33794;-77
2022/06/23 13:47:19;;;;;;;4.70;1.35;;;;;;;33.03;18.91;99560.88;4443760;32;34677;-77
2022/06/23 13:50:04;;;;;;;3.83;1.98;;;;;;;32.60;19.16;99560.75;4430632;32;32953;-81
2022/06/23 13:53:14;;;;;;;5.70;2.70;;;;;;;32.45;18.35;99553.81;4423721;32;32248;-81
2022/06/23 13:56:07;;;;;;;3.78;1.70;;;;;;;32.59;18.63;99550.56;4389031;32;33044;-83
2022/06/23 13:58:59;;;;;;;3.08;1.40;;;;;;;32.20;19.15;99540.78;4431030;32;33707;-82
2022/06/23 14:01:59;;;;;;;4.78;1.52;;;;;;;32.26;19.41;99554.44;4465472;32;33241;-82
2022/06/23 14:04:38;;;;;;;2.05;1.15;;;;;;;32.49;19.06;99557.59;4444324;32;33902;-81
2022/06/23 14:07:11;;;;;;;4.82;1.10;;;;;;;32.52;18.97;99556.03;4456777;32;34068;-81
2022/06/23 14:09:46;;;;;;;6.13;1.10;;;;;;;32.49;19.06;99551.09;4457138;32;33919;-83
2022/06/23 14:12:27;;;;;;;4.68;1.50;;;;;;;32.50;18.92;99545.00;4444211;32;33334;-83
2022/06/23 14:15:01;;;;;;;3.47;1.27;;;;;;;32.55;18.02;99543.94;4444145;32;33979;-82
2022/06/23 14:17:53;;;;;;;5.30;2.40;;;;;;;32.45;18.95;99547.31;4444154;32;34862;-77
2022/06/23 14:20:33;;;;;;;5.90;1.80;;;;;;;32.28;18.93;99556.91;4471206;32;34425;-78
2022/06/23 14:23:31;;;;;;;4.03;1.48;;;;;;;32.31;18.91;99559.87;4470607;32;33226;-76
2022/06/23 14:26:19;;;;;;;5.25;1.45;;;;;;;32.36;19.37;99553.13;4454374;32;33763;-77
2022/06/23 14:29:07;;;;;;;7.47;1.80;;;;;;;32.15;18.20;99547.53;4440449;32;35414;-82
2022/06/23 14:31:43;;;;;;;6.32;1.42;;;;;;;32.20;18.95;99552.97;4423747;32;32743;-79
2022/06/23 14:34:24;;;;;;;7.20;1.50;;;;;;;32.21;19.28;99551.81;4430345;32;32016;-80
2022/06/23 14:37:11;;;;;;;4.87;1.60;;;;;;;32.27;19.30;99553.25;4428021;32;32354;-79
2022/06/23 14:39:46;;;;;;;2.83;1.45;;;;;;;32.09;18.71;99548.97;4427780;32;36004;-79
2022/06/23 14:42:27;;;;;;;4.37;1.70;;;;;;;32.12;19.15;99545.41;4427899;32;33452;-79
2022/06/23 14:45:21;;;;;;;5.68;1.50;;;;;;;32.01;19.43;99539.38;4427939;32;31888;-77
2022/06/23 14:48:08;;;;;;;3.70;1.50;;;;;;;31.95;18.72;99537.97;4454853;32;34306;-78
2022/06/23 14:50:56;;;;;;;3.37;1.40;;;;;;;31.91;19.31;99531.34;4423734;32;33106;-77
2022/06/23 14:53:34;;;;;;;4.28;1.30;;;;;;;31.89;18.96;99532.88;4438260;32;33789;-77
2022/06/23 14:56:10;;;;;;;4.37;1.48;;;;;;;31.61;18.89;99527.91;4424286;32;32852;-77
2022/06/23 14:58:55;;;;;;;4.03;1.33;;;;;;;31.56;19.07;99527.28;4437344;32;32238;-77
2022/06/23 15:01:35;;;;;;;3.45;1.30;;;;;;;31.33;19.02;99532.56;4424842;32;35231;-77
2022/06/23 15:04:17;;;;;;;4.07;1.37;;;;;;;31.15;18.58;99526.28;4437149;32;32334;-77
2022/06/23 15:06:53;;;;;;;2.62;1.10;;;;;;;31.42;19.42;99531.28;4411440;32;33802;-77
2022/06/23 15:09:48;;;;;;;2.87;1.27;;;;;;;31.54;18.85;99527.66;4430985;32;34347;-82
2022/06/23 15:12:48;;;;;;;4.72;2.25;;;;;;;31.49;20.44;99530.72;4426842;32;33808;-82
2022/06/23 15:15:46;;;;;;;2.12;1.10;;;;;;;31.56;20.07;99527.28;4440022;32;33004;-77
2022/06/23 15:18:19;;;;;;;4.37;1.45;;;;;;;31.34;19.18;99514.38;4440118;32;33581;-77
2022/06/23 15:20:56;;;;;;;3.08;1.40;;;;;;;31.44;19.49;99522.44;4439414;32;32504;-76
2022/06/23 15:23:41;;;;;;;4.43;1.60;;;;;;;31.47;19.70;99518.88;4427021;32;32714;-76
2022/06/23 15:26:17;;;;;;;2.35;1.23;;;;;;;31.37;19.92;99522.19;4427448;32;34078;-78
2022/06/23 15:29:26;;;;;;;2.67;1.20;;;;;;;31.38;19.75;99521.81;4425057;32;33319;-77
2022/06/23 15:32:38;;;;;;;3.15;1.35;;;;;;;31.15;18.58;99523.44;4433452;32;33747;-77
2022/06/23 15:35:24;;;;;;;3.60;1.30;;;;;;;31.22;19.83;99517.19;4357402;32;35060;-76
2022/06/23 15:42:02;;;;;;;4.93;1.80;;;;;;;31.14;20.03;99523.81;4449315;32;34590;-76
2022/06/23 15:44:56;;;;;;;2.42;1.30;;;;;;;30.99;20.31;99517.56;4449438;32;33806;-78
2022/06/23 15:47:41;;;;;;;5.40;1.52;;;;;;;30.94;19.90;99520.63;4440510;32;32901;-77
2022/06/23 15:50:18;;;;;;;2.35;1.23;;;;;;;30.89;20.42;99512.34;4455951;32;33519;-76
2022/06/23 15:53:27;;;;;;;4.30;1.50;;;;;;;30.82;20.62;99512.06;4441895;32;33458;-76
2022/06/23 15:56:43;;;;;;;3.55;1.37;;;;;;;30.67;20.44;99502.22;4440805;32;33796;-76
2022/06/23 16:00:09;;;;;;;1.83;1.08;;;;;;;30.64;20.84;99499.25;4456387;32;35829;-77
2022/06/23 16:03:12;;;;;;;2.08;1.10;;;;;;;30.47;20.72;99506.72;4442748;32;35404;-76
2022/06/23 16:06:54;;;;;;;4.75;1.27;;;;;;;30.56;21.05;99508.59;4443560;32;33192;-76
2022/06/23 16:09:54;;;;;;;3.47;1.37;;;;;;;30.52;21.70;99500.00;4445981;32;33787;-77
2022/06/23 16:12:58;;;;;;;2.22;1.20;;;;;;;30.48;21.17;99504.72;4435325;32;34095;-76
2022/06/23 16:16:02;;;;;;;4.87;1.30;;;;;;;30.45;20.38;99508.22;4440704;32;34644;-76
2022/06/23 16:18:58;;;;;;;3.50;1.40;;;;;;;30.37;20.66;99501.47;4434740;32;32251;-76
2022/06/23 16:21:52;;;;;;;3.97;1.10;;;;;;;30.37;20.84;99506.28;4453260;32;33076;-76
2022/06/23 16:25:01;;;;;;;4.07;1.52;;;;;;;30.03;21.27;99502.53;4440566;32;34262;-80
2022/06/23 16:27:51;;;;;;;3.10;1.40;;;;;;;30.26;21.17;99497.37;4452180;32;34050;-81
2022/06/23 16:30:46;;;;;;;4.28;1.40;;;;;;;30.37;21.39;99504.28;4455467;32;33275;-79
2022/06/23 16:33:41;;;;;;;5.12;1.40;;;;;;;30.46;21.72;99492.91;4457596;32;33908;-81
2022/06/23 16:36:37;;;;;;;4.22;1.23;;;;;;;30.44;21.66;99496.06;4450578;32;33022;-81
2022/06/23 16:39:39;;;;;;;4.32;1.70;;;;;;;30.41;21.91;99493.09;4463774;32;32445;-80
2022/06/23 16:42:46;;;;;;;2.83;1.00;;;;;;;30.29;21.76;99493.03;4449707;32;33357;-81
2022/06/23 16:46:16;;;;;;;3.35;1.40;;;;;;;30.23;21.07;99488.75;4434289;32;34276;-80
2022/06/23 16:49:13;;;;;;;4.82;1.35;;;;;;;30.15;22.14;99484.78;4450029;32;34103;-81
2022/06/23 16:52:12;;;;;;;2.08;1.20;;;;;;;30.14;22.12;99488.81;4420614;32;33996;-82
2022/06/23 16:55:08;;;;;;;3.42;1.10;;;;;;;30.17;22.12;99493.78;4418895;32;33453;-80
2022/06/23 16:58:03;;;;;;;6.22;1.70;;;;;;;29.76;21.22;99494.53;4408191;32;33715;-80
2022/06/23 17:01:18;;;;;;;2.90;1.08;;;;;;;29.98;21.21;99499.03;4436244;32;34450;-81
2022/06/23 17:04:32;;;;;;;6.68;1.73;;;;;;;30.04;21.74;99490.03;4386337;32;34142;-80
2022/06/23 17:07:45;;;;;;;3.95;1.48;;;;;;;30.02;21.17;99503.69;4426919;32;31780;-81
2022/06/23 17:11:14;;;;;;;2.95;1.30;;;;;;;29.97;21.58;99506.69;4417047;32;34690;-82
2022/06/23 17:14:22;;;;;;;4.30;1.23;;;;;;;29.79;20.69;99505.16;4433265;32;34419;-82
2022/06/23 17:17:14;;;;;;;5.20;1.30;;;;;;;29.73;20.63;99495.22;4437074;32;34154;-80
2022/06/23 17:20:09;;;;;;;6.43;1.35;;;;;;;29.93;20.72;99502.88;4443834;32;33076;-81
2022/06/23 17:22:57;;;;;;;3.65;1.30;;;;;;;29.90;20.73;99497.13;4420906;32;33788;-80
2022/06/23 17:25:49;;;;;;;4.40;1.20;;;;;;;29.86;21.13;99498.97;4436059;32;34486;-80
2022/06/23 17:28:46;;;;;;;4.65;1.33;;;;;;;29.77;20.79;99502.69;4441535;32;34183;-81
2022/06/23 17:31:26;;;;;;;;;;;;;;;29.89;20.92;99509.59;4438315;32;33211;-80
2022/06/23 17:34:33;;;;;;;3.15;1.45;;;;;;;29.92;21.49;99509.72;4425572;32;33905;-81
2022/06/23 17:37:26;;;;;;;3.15;1.42;;;;;;;29.85;21.72;99508.63;4413021;32;33077;-80
2022/06/23 17:46:20;;;;;;;2.55;1.23;;;;;;;29.69;22.23;99503.53;4438984;32;34483;-81
2022/06/23 17:48:52;;;;;;;6.30;1.50;;;;;;;29.64;22.21;99506.56;4428005;32;35283;-81
2022/06/23 17:51:52;;;;;;;2.35;1.05;;;;;;;29.60;22.66;99508.41;4440050;32;34109;-80
2022/06/23 17:54:42;;;;;;;4.95;1.45;;;;;;;29.54;22.79;99506.13;4411883;32;33457;-81
2022/06/23 17:57:16;;;;;;;3.20;1.48;;;;;;;29.44;23.42;99505.31;4453407;32;34724;-81
2022/06/23 17:59:57;;;;;;;5.07;1.42;;;;;;;29.38;24.04;99500.97;4422782;32;33793;-81
2022/06/23 18:02:34;;;;;;;5.68;1.85;;;;;;;29.37;24.72;99504.16;4433598;32;34642;-80